New Albany, Ohio
Current Conditions -  °F | °C
As of 2:01 AM on Monday 24 Nov 2014 (Local Time) from KCMH Reporting Station
Light Rain Light Rain  
Wind Chill: 57°   Ceiling: 1000
Heat Index: 57°   Visibility: 7mi
Dew Point: 54°   Wind: 20mph
Humidity: 88%   Direction: 180°S
Pressure: 29.29"   Gusts: 25mph
Location:  40.08°N, 82.81°W
Report Text: KCMH 240701Z 18017G22KT 7SM -RA BKN010 OVC015 14/12 A2929 RMK AO2 P0000 $
Loading
Personal Weather Stations






























Interactive Weather Map New forecast layout! Learn more

10-Day Weather Forecast

Advertisements
Track Severe Weather on mobile